createdAt,value
2022-09-28T00:01:23.639Z,15.52
2022-09-28T00:03:53.583Z,15.53
2022-09-28T00:06:24.580Z,15.55
2022-09-28T00:08:51.942Z,15.56
2022-09-28T00:11:21.684Z,15.51
2022-09-28T00:13:51.802Z,15.40
2022-09-28T00:16:22.869Z,15.28
2022-09-28T00:18:52.512Z,15.20
2022-09-28T00:21:25.043Z,15.13
2022-09-28T00:24:22.936Z,15.10
2022-09-28T00:26:55.384Z,15.08
2022-09-28T00:29:23.627Z,15.04
2022-09-28T00:32:00.085Z,15.03
2022-09-28T00:34:27.566Z,14.95
2022-09-28T00:36:54.806Z,14.92
2022-09-28T00:39:21.817Z,14.88
2022-09-28T00:41:49.164Z,14.84
2022-09-28T00:44:25.605Z,14.85
2022-09-28T00:47:08.313Z,14.82
2022-09-28T00:49:42.916Z,14.79
2022-09-28T00:52:15.872Z,14.75
2022-09-28T00:54:46.046Z,14.73
2022-09-28T00:57:14.017Z,14.72
2022-09-28T00:59:42.248Z,14.70
2022-09-28T01:02:10.704Z,14.66
2022-09-28T01:04:38.945Z,14.64
2022-09-28T01:07:09.027Z,14.62
2022-09-28T01:09:39.262Z,14.58
2022-09-28T01:12:07.237Z,14.54
2022-09-28T01:14:34.524Z,14.52
2022-09-28T01:17:13.651Z,14.47
2022-09-28T01:20:07.934Z,14.42
2022-09-28T01:23:00.314Z,14.31
2022-09-28T01:25:39.414Z,14.26
2022-09-28T01:28:18.108Z,14.17
2022-09-28T01:31:00.063Z,14.15
2022-09-28T01:33:37.304Z,14.13
2022-09-28T01:36:25.329Z,14.12
2022-09-28T01:39:06.281Z,14.09
2022-09-28T01:41:36.952Z,14.10
2022-09-28T01:44:08.905Z,14.05
2022-09-28T01:46:44.777Z,13.92
2022-09-28T01:49:24.402Z,13.83
2022-09-28T01:51:57.974Z,13.85
2022-09-28T01:54:36.554Z,13.75
2022-09-28T01:57:18.576Z,13.75
2022-09-28T01:59:56.482Z,13.76
2022-09-28T02:02:32.611Z,13.74
2022-09-28T02:05:17.195Z,13.78
2022-09-28T02:08:04.329Z,13.82
2022-09-28T02:10:54.598Z,13.78
2022-09-28T02:13:31.082Z,13.81
2022-09-28T02:16:23.185Z,13.75
2022-09-28T02:18:51.471Z,13.78
2022-09-28T02:21:24.126Z,13.79
2022-09-28T02:24:10.166Z,13.80
2022-09-28T02:26:42.179Z,13.78
2022-09-28T02:29:09.374Z,13.78
2022-09-28T02:31:36.396Z,13.77
2022-09-28T02:34:03.631Z,13.78
2022-09-28T02:36:31.470Z,13.77
2022-09-28T02:38:58.578Z,13.74
2022-09-28T02:41:46.902Z,13.73
2022-09-28T02:44:30.758Z,13.66
2022-09-28T02:47:10.905Z,13.56
2022-09-28T02:50:07.239Z,13.47
2022-09-28T02:52:40.175Z,13.40
2022-09-28T02:55:12.867Z,13.39
2022-09-28T02:57:46.032Z,13.32
2022-09-28T03:00:19.456Z,13.32
2022-09-28T03:03:18.127Z,13.30
2022-09-28T03:06:21.527Z,13.30
2022-09-28T03:08:58.119Z,13.32
2022-09-28T03:11:52.002Z,13.38
2022-09-28T03:14:19.544Z,13.33
2022-09-28T03:16:51.861Z,13.36
2022-09-28T03:19:25.039Z,13.39
2022-09-28T03:21:52.295Z,13.38
2022-09-28T03:24:19.251Z,13.36
2022-09-28T03:26:46.657Z,13.38
2022-09-28T03:29:14.533Z,13.40
2022-09-28T03:31:44.389Z,13.31
2022-09-28T03:34:12.025Z,13.14
2022-09-28T03:36:38.992Z,13.06
2022-09-28T03:39:05.888Z,13.07
2022-09-28T03:41:32.835Z,13.09
2022-09-28T03:43:59.871Z,13.08
2022-09-28T03:46:28.577Z,13.14
2022-09-28T03:49:01.645Z,13.14
2022-09-28T03:51:29.119Z,13.10
2022-09-28T03:53:56.042Z,13.09
2022-09-28T03:56:23.127Z,13.12
2022-09-28T03:58:50.339Z,13.16
2022-09-28T04:01:18.022Z,13.15
2022-09-28T04:03:47.225Z,13.10
2022-09-28T04:06:14.971Z,13.12
2022-09-28T04:08:43.139Z,13.09
2022-09-28T04:11:09.995Z,13.09
2022-09-28T04:13:37.381Z,12.99
2022-09-28T04:16:06.265Z,12.84
2022-09-28T04:18:35.276Z,12.67
2022-09-28T04:21:11.489Z,12.60
2022-09-28T04:23:42.652Z,12.60
2022-09-28T04:26:25.449Z,12.73
2022-09-28T04:29:11.367Z,12.77
2022-09-28T04:31:53.613Z,12.85
2022-09-28T04:34:23.677Z,12.87
2022-09-28T04:36:51.290Z,12.88
2022-09-28T04:39:21.859Z,12.92
2022-09-28T04:41:52.123Z,12.97
2022-09-28T04:44:19.177Z,12.96
2022-09-28T04:47:04.225Z,12.97
2022-09-28T04:49:32.028Z,12.98
2022-09-28T04:52:07.826Z,12.99
2022-09-28T04:54:35.490Z,13.04
2022-09-28T04:57:03.843Z,12.99
2022-09-28T04:59:30.879Z,12.87
2022-09-28T05:01:58.051Z,12.90
2022-09-28T05:04:43.642Z,12.88
2022-09-28T05:07:31.484Z,12.84
2022-09-28T05:10:01.808Z,12.87
2022-09-28T05:12:31.225Z,12.86
2022-09-28T05:15:00.668Z,12.87
2022-09-28T05:17:28.680Z,12.93
2022-09-28T05:20:24.485Z,13.11
2022-09-28T05:22:52.319Z,13.28
2022-09-28T05:25:19.411Z,13.46
2022-09-28T05:27:57.534Z,13.66
2022-09-28T05:30:39.586Z,13.85
2022-09-28T05:33:26.447Z,14.02
2022-09-28T05:36:13.252Z,14.23
2022-09-28T05:38:42.107Z,14.44
2022-09-28T05:41:09.291Z,14.65
2022-09-28T05:43:36.730Z,14.77
2022-09-28T05:46:06.143Z,14.70
2022-09-28T05:48:35.940Z,14.65
2022-09-28T05:51:02.973Z,14.73
2022-09-28T05:53:30.467Z,14.84
2022-09-28T05:55:59.683Z,14.98
2022-09-28T05:58:28.150Z,15.07
2022-09-28T06:00:58.464Z,15.24
2022-09-28T06:03:27.208Z,15.35
2022-09-28T06:05:54.604Z,15.48
2022-09-28T06:08:21.826Z,15.51
2022-09-28T06:11:01.056Z,15.62
2022-09-28T06:13:28.966Z,15.78
2022-09-28T06:15:56.128Z,16.03
2022-09-28T06:18:23.222Z,16.28
2022-09-28T06:21:14.825Z,16.55
2022-09-28T06:23:48.998Z,16.69
2022-09-28T06:26:17.703Z,16.82
2022-09-28T06:28:45.576Z,16.88
2022-09-28T06:31:13.843Z,16.87
2022-09-28T06:33:45.489Z,16.80
2022-09-28T06:36:13.823Z,16.84
2022-09-28T06:38:40.785Z,16.85
2022-09-28T06:41:08.059Z,16.84
2022-09-28T06:43:35.331Z,16.88
2022-09-28T06:46:21.443Z,16.96
2022-09-28T06:48:49.078Z,17.07
2022-09-28T06:51:25.328Z,17.21
2022-09-28T06:54:07.327Z,17.39
2022-09-28T06:56:40.284Z,17.52
2022-09-28T06:59:07.244Z,17.62
2022-09-28T07:01:35.718Z,17.70
2022-09-28T07:04:18.502Z,17.64
2022-09-28T07:07:18.463Z,17.79
2022-09-28T07:10:04.473Z,17.89
2022-09-28T07:12:44.316Z,18.04
2022-09-28T07:15:24.826Z,18.23
2022-09-28T07:18:02.784Z,18.35
2022-09-28T07:20:45.382Z,18.51
2022-09-28T07:23:19.810Z,18.59
2022-09-28T07:26:08.149Z,18.74
2022-09-28T07:28:56.043Z,18.97
2022-09-28T07:31:33.797Z,19.01
2022-09-28T07:34:44.147Z,19.05
2022-09-28T07:37:19.018Z,19.11
2022-09-28T07:40:06.207Z,19.19
2022-09-28T07:42:38.425Z,19.35
2022-09-28T07:45:07.462Z,19.40
2022-09-28T07:47:35.385Z,19.52
2022-09-28T07:50:32.430Z,19.69
2022-09-28T07:53:06.283Z,19.80
2022-09-28T07:56:07.469Z,19.90
2022-09-28T07:58:43.184Z,20.02
2022-09-28T08:01:31.411Z,20.20
2022-09-28T08:04:00.169Z,20.31
2022-09-28T08:06:27.072Z,20.47
2022-09-28T08:08:56.818Z,20.55
2022-09-28T08:11:32.783Z,20.61
2022-09-28T08:14:23.664Z,20.73
2022-09-28T08:17:11.117Z,20.86
2022-09-28T08:20:03.155Z,20.90
2022-09-28T08:22:32.487Z,21.00
2022-09-28T08:25:00.658Z,20.98
2022-09-28T08:27:29.882Z,21.06
2022-09-28T08:29:56.940Z,21.19
2022-09-28T08:32:59.759Z,21.49
2022-09-28T08:35:42.380Z,21.74
2022-09-28T08:38:14.992Z,21.98
2022-09-28T08:41:21.507Z,22.23
2022-09-28T08:44:16.238Z,22.23
2022-09-28T08:47:30.060Z,22.29
2022-09-28T08:50:29.350Z,22.27
2022-09-28T08:53:38.974Z,22.35
2022-09-28T08:56:32.741Z,22.50
2022-09-28T08:59:04.594Z,22.58
2022-09-28T09:01:38.789Z,22.61
2022-09-28T09:04:10.492Z,22.77
2022-09-28T09:07:25.115Z,22.94
2022-09-28T09:10:36.715Z,22.95
2022-09-28T09:13:23.793Z,22.99
2022-09-28T09:16:24.365Z,22.77
2022-09-28T09:19:36.563Z,22.70
2022-09-28T09:22:42.351Z,22.86
2022-09-28T09:25:35.373Z,23.09
2022-09-28T09:28:35.384Z,23.36
2022-09-28T09:31:20.727Z,23.51
2022-09-28T09:34:25.531Z,23.53
2022-09-28T09:37:28.600Z,23.55
2022-09-28T09:44:18.535Z,23.75
2022-09-28T09:47:13.600Z,23.83
2022-09-28T09:50:30.460Z,23.98
2022-09-28T09:53:06.921Z,24.01
2022-09-28T09:55:42.104Z,24.13
2022-09-28T10:13:13.626Z,24.38
2022-09-28T10:15:42.554Z,24.37
2022-09-28T10:18:21.091Z,24.42
2022-09-28T10:21:06.935Z,24.48
2022-09-28T10:23:59.734Z,24.61
2022-09-28T10:26:36.226Z,24.80
2022-09-28T10:29:13.239Z,25.13
2022-09-28T10:31:45.473Z,25.29
2022-09-28T10:34:28.879Z,25.29
2022-09-28T10:37:01.407Z,25.25
2022-09-28T10:39:47.190Z,25.31
2022-09-28T10:42:21.261Z,25.37
2022-09-28T10:45:23.449Z,25.50
2022-09-28T10:47:52.220Z,25.52
2022-09-28T10:50:23.787Z,25.58
2022-09-28T10:53:32.097Z,25.70
2022-09-28T10:56:18.503Z,25.92
2022-09-28T10:58:47.036Z,26.23
2022-09-28T11:01:26.866Z,26.33
2022-09-28T11:04:02.558Z,26.56
2022-09-28T11:06:32.959Z,26.83
2022-09-28T11:09:03.125Z,27.10
2022-09-28T11:11:32.047Z,27.38
2022-09-28T11:14:04.287Z,27.77
2022-09-28T11:16:36.756Z,27.89
2022-09-28T11:19:20.332Z,28.16
2022-09-28T11:21:48.593Z,28.33
2022-09-28T11:24:19.101Z,28.29
2022-09-28T11:26:50.310Z,28.17
2022-09-28T11:29:45.511Z,28.01
2022-09-28T11:32:24.620Z,27.87
2022-09-28T11:35:19.878Z,27.77
2022-09-28T11:37:59.642Z,27.74
2022-09-28T11:41:15.684Z,27.76
2022-09-28T11:44:05.728Z,27.82
2022-09-28T11:46:44.581Z,27.82
2022-09-28T11:49:22.776Z,27.88
2022-09-28T11:51:52.874Z,27.87
2022-09-28T11:54:19.892Z,27.87
2022-09-28T11:56:49.880Z,27.88
2022-09-28T11:59:40.004Z,27.76
2022-09-28T12:02:17.080Z,27.72
2022-09-28T12:05:07.979Z,27.73
2022-09-28T12:07:44.731Z,27.85
2022-09-28T12:11:00.907Z,28.09
2022-09-28T12:14:04.882Z,28.61
2022-09-28T12:19:44.214Z,30.10
2022-09-28T12:22:25.604Z,30.53
2022-09-28T12:24:56.787Z,30.34
2022-09-28T12:27:29.783Z,29.94
2022-09-28T12:30:04.628Z,29.65
2022-09-28T12:32:47.001Z,29.68
2022-09-28T12:35:20.186Z,30.29
2022-09-28T12:38:24.700Z,30.90
2022-09-28T12:40:55.806Z,30.87
2022-09-28T12:43:33.558Z,30.52
2022-09-28T12:46:13.854Z,29.97
2022-09-28T12:49:51.466Z,29.70
2022-09-28T12:51:55.024Z,29.24
2022-09-28T12:54:42.172Z,29.04
2022-09-28T12:57:24.493Z,28.82
2022-09-28T13:00:12.516Z,28.55
2022-09-28T13:03:07.825Z,28.15
2022-09-28T13:06:07.093Z,27.88
2022-09-28T13:09:06.747Z,27.56
2022-09-28T13:11:43.907Z,27.38
2022-09-28T13:14:49.757Z,27.26
2022-09-28T13:18:01.031Z,27.10
2022-09-28T13:20:35.900Z,26.83
2022-09-28T13:23:16.577Z,26.77
2022-09-28T13:25:51.042Z,26.70
2022-09-28T13:28:26.174Z,26.56
2022-09-28T13:33:45.080Z,27.78
2022-09-28T13:36:33.037Z,28.01
2022-09-28T13:39:00.930Z,28.03
2022-09-28T13:41:40.508Z,28.17
2022-09-28T13:44:13.946Z,28.10
2022-09-28T13:47:10.184Z,28.13
2022-09-28T13:49:56.716Z,28.12
2022-09-28T13:52:44.567Z,28.39
2022-09-28T13:55:22.303Z,28.29
2022-09-28T13:57:54.281Z,28.44
2022-09-28T14:00:44.472Z,28.76
2022-09-28T14:03:26.138Z,29.34
2022-09-28T14:06:04.613Z,29.82
2022-09-28T14:08:38.679Z,30.21
2022-09-28T14:11:36.887Z,30.69
2022-09-28T14:14:14.773Z,31.11
2022-09-28T14:16:43.414Z,31.58
2022-09-28T14:19:32.444Z,31.88
2022-09-28T14:22:11.453Z,31.86
2022-09-28T14:24:48.243Z,32.19
2022-09-28T14:27:21.021Z,32.50
2022-09-28T14:29:54.302Z,32.81
2022-09-28T14:32:24.209Z,32.80
2022-09-28T14:35:01.653Z,32.43
2022-09-28T14:37:56.406Z,32.36
2022-09-28T14:40:49.752Z,32.42
2022-09-28T14:43:35.832Z,32.55
2022-09-28T14:46:12.892Z,32.53
2022-09-28T14:48:49.195Z,32.29
2022-09-28T14:51:34.115Z,32.09
2022-09-28T14:54:14.124Z,31.95
2022-09-28T14:57:09.739Z,31.88
2022-09-28T14:59:43.588Z,31.51
2022-09-28T15:02:11.121Z,31.04
2022-09-28T15:04:47.194Z,30.78
2022-09-28T15:07:33.379Z,30.95
2022-09-28T15:10:02.751Z,31.17
2022-09-28T15:12:32.797Z,31.40
2022-09-28T15:15:08.640Z,31.64
2022-09-28T15:17:40.876Z,31.33
2022-09-28T15:20:41.817Z,30.76
2022-09-28T15:23:37.315Z,30.09
2022-09-28T15:26:09.745Z,29.54
2022-09-28T15:28:39.455Z,28.99
2022-09-28T15:31:06.629Z,28.46
2022-09-28T15:33:53.700Z,27.97
2022-09-28T15:36:25.655Z,27.51
2022-09-28T15:38:59.543Z,27.24
2022-09-28T15:41:27.459Z,26.97
2022-09-28T15:44:12.336Z,26.66
2022-09-28T15:46:43.228Z,26.43
2022-09-28T15:49:45.496Z,26.14
2022-09-28T15:52:42.960Z,25.93
2022-09-28T15:55:21.112Z,25.73
2022-09-28T15:57:49.711Z,25.54
2022-09-28T16:00:28.993Z,25.38
2022-09-28T16:03:22.309Z,25.17
2022-09-28T16:05:58.479Z,24.95
2022-09-28T16:08:33.099Z,24.77
2022-09-28T16:11:18.406Z,24.62
2022-09-28T16:13:48.970Z,24.41
2022-09-28T16:16:17.230Z,24.23
2022-09-28T16:18:49.029Z,24.13
2022-09-28T16:21:39.266Z,24.01
2022-09-28T16:24:08.599Z,23.86
2022-09-28T16:26:39.039Z,23.75
2022-09-28T16:29:25.908Z,23.61
2022-09-28T16:31:53.314Z,23.46
2022-09-28T16:34:24.609Z,23.36
2022-09-28T16:36:51.728Z,23.28
2022-09-28T16:39:19.324Z,23.14
2022-09-28T16:41:53.974Z,23.05
2022-09-28T16:44:28.511Z,22.95
2022-09-28T16:46:58.584Z,22.79
2022-09-28T16:49:26.926Z,22.67
2022-09-28T16:51:54.334Z,22.55
2022-09-28T16:54:42.741Z,22.45
2022-09-28T16:57:15.072Z,22.28
2022-09-28T16:59:42.060Z,22.08
2022-09-28T17:05:14.012Z,21.75
2022-09-28T17:07:41.000Z,21.63
2022-09-28T17:10:50.114Z,21.52
2022-09-28T17:13:33.379Z,21.39
2022-09-28T17:16:09.087Z,21.22
2022-09-28T17:18:40.140Z,21.16
2022-09-28T17:21:12.437Z,21.07
2022-09-28T17:23:39.669Z,20.98
2022-09-28T17:26:06.855Z,20.91
2022-09-28T17:28:36.421Z,20.82
2022-09-28T17:31:04.991Z,20.70
2022-09-28T17:33:32.394Z,20.60
2022-09-28T17:36:01.555Z,20.55
2022-09-28T17:38:28.562Z,20.48
2022-09-28T17:40:55.737Z,20.44
2022-09-28T17:43:22.769Z,20.35
2022-09-28T17:45:50.833Z,20.28
2022-09-28T17:48:23.474Z,20.26
2022-09-28T17:50:51.278Z,20.24
2022-09-28T17:53:18.399Z,20.18
2022-09-28T17:55:47.891Z,20.08
2022-09-28T17:58:16.778Z,20.02
2022-09-28T18:00:46.123Z,19.99
2022-09-28T18:03:16.308Z,19.92
2022-09-28T18:05:54.074Z,19.88
2022-09-28T18:08:23.053Z,19.79
2022-09-28T18:10:50.740Z,19.67
2022-09-28T18:13:18.182Z,19.59
2022-09-28T18:15:45.170Z,19.54
2022-09-28T18:18:13.062Z,19.49
2022-09-28T18:20:41.683Z,19.44
2022-09-28T18:23:08.857Z,19.42
2022-09-28T18:25:39.695Z,19.37
2022-09-28T18:28:07.115Z,19.31
2022-09-28T18:30:34.370Z,19.23
2022-09-28T18:33:01.877Z,19.15
2022-09-28T18:35:29.255Z,19.02
2022-09-28T18:37:56.790Z,18.92
2022-09-28T18:40:24.236Z,18.87
2022-09-28T18:42:52.238Z,18.82
2022-09-28T18:45:19.281Z,18.82
2022-09-28T18:47:46.944Z,18.80
2022-09-28T18:50:15.733Z,18.76
2022-09-28T18:52:45.002Z,18.77
2022-09-28T18:55:12.698Z,18.71
2022-09-28T18:57:41.705Z,18.70
2022-09-28T19:00:11.726Z,18.74
2022-09-28T19:02:39.284Z,18.74
2022-09-28T19:05:07.271Z,18.75
2022-09-28T19:07:34.839Z,18.74
2022-09-28T19:10:02.025Z,18.69
2022-09-28T19:12:29.557Z,18.58
2022-09-28T19:14:56.585Z,18.55
2022-09-28T19:17:24.129Z,18.53
2022-09-28T19:19:52.113Z,18.53
2022-09-28T19:22:19.302Z,18.58
2022-09-28T19:24:46.224Z,18.60
2022-09-28T19:27:13.971Z,18.58
2022-09-28T19:29:40.983Z,18.51
2022-09-28T19:32:08.255Z,18.45
2022-09-28T19:34:35.481Z,18.43
2022-09-28T19:37:04.040Z,18.43
2022-09-28T19:39:31.164Z,18.43
2022-09-28T19:42:00.505Z,18.36
2022-09-28T19:44:28.894Z,18.39
2022-09-28T19:47:08.234Z,18.41
2022-09-28T19:49:37.519Z,18.38
2022-09-28T19:52:13.259Z,18.38
2022-09-28T19:54:57.736Z,18.32
2022-09-28T19:57:27.884Z,18.30
2022-09-28T20:00:00.910Z,18.29
2022-09-28T20:02:33.894Z,18.29
2022-09-28T20:05:03.126Z,18.30
2022-09-28T20:07:33.075Z,18.27
2022-09-28T20:10:01.017Z,18.20
2022-09-28T20:12:27.920Z,18.16
2022-09-28T20:14:55.182Z,18.11
2022-09-28T20:17:22.867Z,18.05
2022-09-28T20:19:51.927Z,18.01
2022-09-28T20:22:19.443Z,17.93
2022-09-28T20:24:47.590Z,17.87
2022-09-28T20:27:14.598Z,17.82
2022-09-28T20:29:43.183Z,17.76
2022-09-28T20:32:16.441Z,17.65
2022-09-28T20:34:43.893Z,17.62
2022-09-28T20:37:13.766Z,17.57
2022-09-28T20:39:44.804Z,17.53
2022-09-28T20:42:12.654Z,17.45
2022-09-28T20:44:39.524Z,17.40
2022-09-28T20:47:08.317Z,17.46
2022-09-28T20:49:37.052Z,17.47
2022-09-28T20:52:04.231Z,17.46
2022-09-28T20:54:31.186Z,17.45
2022-09-28T20:56:58.518Z,17.44
2022-09-28T20:59:26.599Z,17.39
2022-09-28T21:01:56.520Z,17.29
2022-09-28T21:04:24.523Z,17.25
2022-09-28T21:06:52.006Z,17.22
2022-09-28T21:09:19.540Z,17.19
2022-09-28T21:11:47.106Z,17.15
2022-09-28T21:14:14.253Z,17.16
2022-09-28T21:16:41.131Z,17.15
2022-09-28T21:19:08.525Z,17.08
2022-09-28T21:21:35.603Z,17.09
2022-09-28T21:24:03.173Z,17.09
2022-09-28T21:26:31.715Z,17.11
2022-09-28T21:29:02.059Z,17.10
2022-09-28T21:31:33.002Z,17.11
2022-09-28T21:34:00.860Z,17.14
2022-09-28T21:36:27.732Z,17.08
2022-09-28T21:38:56.210Z,17.00
2022-09-28T21:41:26.019Z,16.91
2022-09-28T21:43:53.714Z,16.85
2022-09-28T21:46:21.225Z,16.88
2022-09-28T21:48:53.616Z,16.92
2022-09-28T21:51:21.456Z,16.92
2022-09-28T21:53:49.617Z,16.91
2022-09-28T21:56:17.615Z,16.87
2022-09-28T21:58:44.505Z,16.80
2022-09-28T22:01:20.855Z,16.80
2022-09-28T22:03:51.011Z,16.63
2022-09-28T22:06:23.722Z,16.56
2022-09-28T22:08:51.526Z,16.52
2022-09-28T22:11:21.371Z,16.47
2022-09-28T22:13:54.689Z,16.39
2022-09-28T22:16:24.672Z,16.36
2022-09-28T22:18:51.682Z,16.32
2022-09-28T22:21:24.448Z,16.33
2022-09-28T22:23:52.517Z,16.30
2022-09-28T22:26:25.883Z,16.14
2022-09-28T22:28:58.408Z,16.11
2022-09-28T22:31:29.575Z,16.08
2022-09-28T22:33:57.433Z,16.08
2022-09-28T22:36:26.001Z,16.08
2022-09-28T22:38:55.604Z,16.08
2022-09-28T22:41:22.523Z,16.07
2022-09-28T22:43:51.255Z,16.08
2022-09-28T22:46:24.676Z,16.07
2022-09-28T22:48:54.159Z,16.06
2022-09-28T22:51:22.286Z,16.02
2022-09-28T22:53:50.331Z,15.97
2022-09-28T22:56:19.191Z,15.96
2022-09-28T22:58:47.079Z,15.92
2022-09-28T23:01:18.019Z,15.90
2022-09-28T23:03:45.730Z,15.91
2022-09-28T23:06:15.063Z,15.85
2022-09-28T23:08:43.549Z,15.70
2022-09-28T23:11:10.535Z,15.65
2022-09-28T23:13:39.588Z,15.63
2022-09-28T23:16:08.876Z,15.63
2022-09-28T23:18:38.506Z,15.56
2022-09-28T23:21:07.919Z,15.56
2022-09-28T23:23:35.385Z,15.53
2022-09-28T23:26:14.302Z,15.54
2022-09-28T23:28:42.282Z,15.49
2022-09-28T23:31:15.482Z,15.35
2022-09-28T23:33:43.064Z,15.21
2022-09-28T23:36:10.042Z,15.10
2022-09-28T23:38:37.725Z,15.08
2022-09-28T23:41:05.502Z,15.12
2022-09-28T23:43:33.079Z,15.01
2022-09-28T23:46:00.112Z,15.09
2022-09-28T23:48:27.618Z,15.10
2022-09-28T23:50:54.533Z,15.08
2022-09-28T23:53:21.783Z,15.08
2022-09-28T23:55:49.067Z,15.08
2022-09-28T23:58:16.009Z,15.08
